sensor_id;sensor_type;location;lat;lon;timestamp;pressure;altitude;pressure_sealevel;temperature;humidity
76660;BME280;65579;45.534;6.212;2023-02-26T00:00:11;96879.33;;;5.92;45.91
76660;BME280;65579;45.534;6.212;2023-02-26T00:02:33;96877.15;;;6.24;48.83
76660;BME280;65579;45.534;6.212;2023-02-26T00:04:59;96875.44;;;6.81;43.74
76660;BME280;65579;45.534;6.212;2023-02-26T00:07:24;96871.44;;;6.48;44.68
76660;BME280;65579;45.534;6.212;2023-02-26T00:09:49;96876.92;;;6.39;45.26
76660;BME280;65579;45.534;6.212;2023-02-26T00:12:15;96877.76;;;6.47;47.32
76660;BME280;65579;45.534;6.212;2023-02-26T00:14:41;96873.20;;;6.53;44.27
76660;BME280;65579;45.534;6.212;2023-02-26T00:19:32;96878.10;;;6.58;44.65
76660;BME280;65579;45.534;6.212;2023-02-26T00:21:57;96874.86;;;5.98;42.25
76660;BME280;65579;45.534;6.212;2023-02-26T00:24:22;96872.50;;;6.01;46.98
76660;BME280;65579;45.534;6.212;2023-02-26T00:26:47;96872.02;;;6.61;49.55
76660;BME280;65579;45.534;6.212;2023-02-26T00:29:13;96872.55;;;6.71;46.74
76660;BME280;65579;45.534;6.212;2023-02-26T00:31:38;96876.06;;;6.65;46.88
76660;BME280;65579;45.534;6.212;2023-02-26T00:34:04;96870.40;;;6.99;43.82
76660;BME280;65579;45.534;6.212;2023-02-26T00:36:34;96872.05;;;6.48;47.12
76660;BME280;65579;45.534;6.212;2023-02-26T00:39:05;96867.63;;;6.05;48.35
76660;BME280;65579;45.534;6.212;2023-02-26T00:41:20;96873.00;;;6.39;45.56
76660;BME280;65579;45.534;6.212;2023-02-26T00:43:45;96877.09;;;6.55;44.61
76660;BME280;65579;45.534;6.212;2023-02-26T00:46:17;96881.13;;;6.31;46.54
76660;BME280;65579;45.534;6.212;2023-02-26T00:48:46;96883.96;;;5.75;44.79
76660;BME280;65579;45.534;6.212;2023-02-26T00:51:07;96881.49;;;6.06;49.77
76660;BME280;65579;45.534;6.212;2023-02-26T00:53:30;96885.65;;;6.33;48.02
76660;BME280;65579;45.534;6.212;2023-02-26T00:55:51;96886.01;;;6.50;46.52
76660;BME280;65579;45.534;6.212;2023-02-26T00:58:17;96886.30;;;7.00;45.26
76660;BME280;65579;45.534;6.212;2023-02-26T01:00:42;96884.70;;;6.96;45.73
76660;BME280;65579;45.534;6.212;2023-02-26T01:03:08;96882.14;;;6.48;45.08
76660;BME280;65579;45.534;6.212;2023-02-26T01:05:33;96883.29;;;6.31;43.57
76660;BME280;65579;45.534;6.212;2023-02-26T01:08:04;96885.16;;;6.02;44.81
76660;BME280;65579;45.534;6.212;2023-02-26T01:10:24;96884.31;;;6.33;45.02
76660;BME280;65579;45.534;6.212;2023-02-26T01:12:50;96885.05;;;6.22;45.64
76660;BME280;65579;45.534;6.212;2023-02-26T01:15:16;96881.98;;;6.86;43.59
76660;BME280;65579;45.534;6.212;2023-02-26T01:17:46;96880.89;;;6.20;41.39
76660;BME280;65579;45.534;6.212;2023-02-26T01:20:12;96884.18;;;6.18;50.25
76660;BME280;65579;45.534;6.212;2023-02-26T01:22:34;96882.22;;;6.43;44.87
76660;BME280;65579;45.534;6.212;2023-02-26T01:25:02;96880.58;;;5.84;42.19
76660;BME280;65579;45.534;6.212;2023-02-26T01:27:21;96881.53;;;6.23;39.62
76660;BME280;65579;45.534;6.212;2023-02-26T01:29:47;96873.86;;;6.66;44.44
76660;BME280;65579;45.534;6.212;2023-02-26T01:32:17;96867.46;;;6.38;44.89
76660;BME280;65579;45.534;6.212;2023-02-26T01:34:41;96866.63;;;6.37;42.60
76660;BME280;65579;45.534;6.212;2023-02-26T01:37:12;96864.74;;;6.06;41.86
76660;BME280;65579;45.534;6.212;2023-02-26T01:39:34;96861.44;;;6.06;45.03
76660;BME280;65579;45.534;6.212;2023-02-26T01:41:55;96859.12;;;6.68;43.43
76660;BME280;65579;45.534;6.212;2023-02-26T01:44:25;96861.97;;;6.69;44.93
76660;BME280;65579;45.534;6.212;2023-02-26T01:46:55;96856.83;;;5.81;42.12
76660;BME280;65579;45.534;6.212;2023-02-26T01:49:12;96853.77;;;5.48;44.82
76660;BME280;65579;45.534;6.212;2023-02-26T01:51:44;96850.65;;;6.27;43.92
76660;BME280;65579;45.534;6.212;2023-02-26T01:54:00;96853.16;;;5.92;41.98
76660;BME280;65579;45.534;6.212;2023-02-26T01:56:26;96848.46;;;5.91;48.42
76660;BME280;65579;45.534;6.212;2023-02-26T01:58:51;96844.57;;;6.21;41.64
76660;BME280;65579;45.534;6.212;2023-02-26T02:01:17;96842.40;;;5.82;41.88
76660;BME280;65579;45.534;6.212;2023-02-26T02:03:43;96842.41;;;5.81;43.40
76660;BME280;65579;45.534;6.212;2023-02-26T02:06:10;96843.17;;;5.42;42.47
76660;BME280;65579;45.534;6.212;2023-02-26T02:08:33;96845.28;;;5.46;44.82
76660;BME280;65579;45.534;6.212;2023-02-26T02:10:58;96845.67;;;5.21;46.01
76660;BME280;65579;45.534;6.212;2023-02-26T02:13:34;96845.92;;;5.63;42.53
76660;BME280;65579;45.534;6.212;2023-02-26T02:15:54;96845.02;;;6.09;41.88
76660;BME280;65579;45.534;6.212;2023-02-26T02:18:21;96842.89;;;5.87;41.11
76660;BME280;65579;45.534;6.212;2023-02-26T02:23:12;96838.65;;;5.44;44.05
76660;BME280;65579;45.534;6.212;2023-02-26T02:25:44;96842.56;;;5.63;44.81
76660;BME280;65579;45.534;6.212;2023-02-26T02:28:01;96838.62;;;5.71;42.68
76660;BME280;65579;45.534;6.212;2023-02-26T02:30:29;96841.88;;;5.23;45.35
76660;BME280;65579;45.534;6.212;2023-02-26T02:32:50;96834.20;;;5.37;44.89
76660;BME280;65579;45.534;6.212;2023-02-26T02:35:16;96837.70;;;5.08;50.35
76660;BME280;65579;45.534;6.212;2023-02-26T02:37:42;96836.63;;;5.69;42.87
76660;BME280;65579;45.534;6.212;2023-02-26T02:40:06;96832.55;;;5.46;42.78
76660;BME280;65579;45.534;6.212;2023-02-26T02:42:31;96838.79;;;5.50;44.35
76660;BME280;65579;45.534;6.212;2023-02-26T02:44:57;96842.48;;;4.99;42.78
76660;BME280;65579;45.534;6.212;2023-02-26T02:47:20;96844.22;;;4.72;51.42
76660;BME280;65579;45.534;6.212;2023-02-26T02:49:47;96839.57;;;5.36;46.25
76660;BME280;65579;45.534;6.212;2023-02-26T02:52:14;96833.26;;;5.78;44.87
76660;BME280;65579;45.534;6.212;2023-02-26T02:54:39;96834.35;;;6.17;44.44
76660;BME280;65579;45.534;6.212;2023-02-26T02:57:03;96833.56;;;5.66;41.42
76660;BME280;65579;45.534;6.212;2023-02-26T02:59:29;96839.17;;;5.80;46.63
76660;BME280;65579;45.534;6.212;2023-02-26T03:01:56;96841.68;;;5.79;49.16
76660;BME280;65579;45.534;6.212;2023-02-26T03:04:17;96844.54;;;6.01;40.68
76660;BME280;65579;45.534;6.212;2023-02-26T03:06:42;96841.40;;;5.49;43.16
76660;BME280;65579;45.534;6.212;2023-02-26T03:09:09;96845.18;;;5.97;45.31
76660;BME280;65579;45.534;6.212;2023-02-26T03:11:33;96843.18;;;5.74;44.74
76660;BME280;65579;45.534;6.212;2023-02-26T03:13:58;96842.41;;;5.88;48.54
76660;BME280;65579;45.534;6.212;2023-02-26T03:16:33;96838.43;;;5.61;52.67
76660;BME280;65579;45.534;6.212;2023-02-26T03:18:55;96845.08;;;5.53;48.25
76660;BME280;65579;45.534;6.212;2023-02-26T03:21:20;96839.26;;;5.91;44.11
76660;BME280;65579;45.534;6.212;2023-02-26T03:23:44;96839.86;;;5.92;51.11
76660;BME280;65579;45.534;6.212;2023-02-26T03:26:10;96850.09;;;5.36;47.05
76660;BME280;65579;45.534;6.212;2023-02-26T03:28:33;96845.29;;;5.58;42.62
76660;BME280;65579;45.534;6.212;2023-02-26T03:30:59;96844.83;;;5.44;45.97
76660;BME280;65579;45.534;6.212;2023-02-26T03:33:25;96844.20;;;5.62;46.97
76660;BME280;65579;45.534;6.212;2023-02-26T03:35:49;96848.23;;;5.08;47.95
76660;BME280;65579;45.534;6.212;2023-02-26T03:38:18;96845.62;;;5.97;45.71
76660;BME280;65579;45.534;6.212;2023-02-26T03:40:41;96848.99;;;5.66;44.72
76660;BME280;65579;45.534;6.212;2023-02-26T03:43:05;96849.49;;;5.87;39.78
76660;BME280;65579;45.534;6.212;2023-02-26T03:45:33;96857.43;;;5.68;43.20
76660;BME280;65579;45.534;6.212;2023-02-26T03:47:54;96858.60;;;4.84;45.51
76660;BME280;65579;45.534;6.212;2023-02-26T03:50:23;96856.43;;;4.91;43.88
76660;BME280;65579;45.534;6.212;2023-02-26T03:52:47;96856.69;;;4.87;47.89
76660;BME280;65579;45.534;6.212;2023-02-26T03:55:13;96858.19;;;5.36;49.05
76660;BME280;65579;45.534;6.212;2023-02-26T03:57:36;96856.48;;;4.83;46.48
76660;BME280;65579;45.534;6.212;2023-02-26T04:00:00;96856.99;;;5.52;43.13
76660;BME280;65579;45.534;6.212;2023-02-26T04:02:30;96855.32;;;5.34;43.56
76660;BME280;65579;45.534;6.212;2023-02-26T04:04:55;96852.62;;;4.98;43.24
76660;BME280;65579;45.534;6.212;2023-02-26T04:07:17;96849.44;;;5.07;41.81
76660;BME280;65579;45.534;6.212;2023-02-26T04:09:44;96854.84;;;5.29;47.67
76660;BME280;65579;45.534;6.212;2023-02-26T04:12:08;96851.21;;;5.77;40.55
76660;BME280;65579;45.534;6.212;2023-02-26T04:14:33;96855.64;;;5.46;41.38
76660;BME280;65579;45.534;6.212;2023-02-26T04:16:58;96848.85;;;5.04;46.19
76660;BME280;65579;45.534;6.212;2023-02-26T04:19:24;96846.45;;;5.34;42.44
76660;BME280;65579;45.534;6.212;2023-02-26T04:21:49;96846.98;;;5.06;48.81
76660;BME280;65579;45.534;6.212;2023-02-26T04:24:15;96849.20;;;5.00;46.35
76660;BME280;65579;45.534;6.212;2023-02-26T04:26:40;96846.25;;;5.16;42.34
76660;BME280;65579;45.534;6.212;2023-02-26T04:29:05;96850.70;;;5.20;43.17
76660;BME280;65579;45.534;6.212;2023-02-26T04:31:30;96849.41;;;4.87;45.60
76660;BME280;65579;45.534;6.212;2023-02-26T04:33:56;96848.39;;;5.00;47.27
76660;BME280;65579;45.534;6.212;2023-02-26T04:36:22;96844.32;;;4.22;43.88
76660;BME280;65579;45.534;6.212;2023-02-26T04:38:47;96840.54;;;4.47;43.94
76660;BME280;65579;45.534;6.212;2023-02-26T04:41:13;96837.29;;;4.73;43.17
76660;BME280;65579;45.534;6.212;2023-02-26T04:43:38;96844.12;;;4.25;43.83
76660;BME280;65579;45.534;6.212;2023-02-26T04:46:04;96834.05;;;4.76;48.31
76660;BME280;65579;45.534;6.212;2023-02-26T04:48:29;96845.64;;;4.76;47.28
76660;BME280;65579;45.534;6.212;2023-02-26T04:50:55;96831.69;;;5.36;50.24
76660;BME280;65579;45.534;6.212;2023-02-26T04:53:20;96832.64;;;4.25;42.07
76660;BME280;65579;45.534;6.212;2023-02-26T04:55:47;96832.89;;;4.78;47.86
76660;BME280;65579;45.534;6.212;2023-02-26T04:58:11;96830.31;;;4.56;44.39
76660;BME280;65579;45.534;6.212;2023-02-26T05:00:36;96828.53;;;4.66;44.81
76660;BME280;65579;45.534;6.212;2023-02-26T05:03:02;96828.38;;;4.90;46.68
76660;BME280;65579;45.534;6.212;2023-02-26T05:05:27;96825.19;;;5.65;42.20
76660;BME280;65579;45.534;6.212;2023-02-26T05:07:53;96822.65;;;6.31;38.86
76660;BME280;65579;45.534;6.212;2023-02-26T05:10:18;96818.22;;;5.04;42.20
76660;BME280;65579;45.534;6.212;2023-02-26T05:12:44;96821.43;;;4.93;40.66
76660;BME280;65579;45.534;6.212;2023-02-26T05:15:10;96824.17;;;4.51;46.69
76660;BME280;65579;45.534;6.212;2023-02-26T05:17:35;96824.18;;;4.32;43.65
76660;BME280;65579;45.534;6.212;2023-02-26T05:20:00;96820.09;;;4.87;42.29
76660;BME280;65579;45.534;6.212;2023-02-26T05:22:25;96817.39;;;4.33;45.13
76660;BME280;65579;45.534;6.212;2023-02-26T05:24:51;96813.83;;;4.81;46.88
76660;BME280;65579;45.534;6.212;2023-02-26T05:27:16;96813.83;;;4.70;44.43
76660;BME280;65579;45.534;6.212;2023-02-26T05:29:42;96816.32;;;4.11;40.70
76660;BME280;65579;45.534;6.212;2023-02-26T05:32:07;96811.60;;;3.91;43.97
76660;BME280;65579;45.534;6.212;2023-02-26T05:34:32;96810.27;;;4.45;42.51
76660;BME280;65579;45.534;6.212;2023-02-26T05:36:58;96815.16;;;5.16;43.41
76660;BME280;65579;45.534;6.212;2023-02-26T05:39:23;96812.56;;;5.08;42.43
76660;BME280;65579;45.534;6.212;2023-02-26T05:41:49;96805.66;;;4.70;47.04
76660;BME280;65579;45.534;6.212;2023-02-26T05:44:14;96806.34;;;4.21;47.06
76660;BME280;65579;45.534;6.212;2023-02-26T05:46:40;96806.07;;;4.29;48.24
76660;BME280;65579;45.534;6.212;2023-02-26T05:49:05;96801.10;;;4.48;41.52
76660;BME280;65579;45.534;6.212;2023-02-26T05:51:30;96791.06;;;3.63;45.49
76660;BME280;65579;45.534;6.212;2023-02-26T05:53:55;96791.38;;;3.53;45.96
76660;BME280;65579;45.534;6.212;2023-02-26T05:56:21;96789.11;;;3.85;47.53
76660;BME280;65579;45.534;6.212;2023-02-26T05:58:46;96788.89;;;3.48;45.26
76660;BME280;65579;45.534;6.212;2023-02-26T06:01:11;96790.79;;;3.83;46.72
76660;BME280;65579;45.534;6.212;2023-02-26T06:03:37;96790.88;;;4.15;54.72
76660;BME280;65579;45.534;6.212;2023-02-26T06:06:02;96800.34;;;4.05;45.56
76660;BME280;65579;45.534;6.212;2023-02-26T06:08:27;96793.49;;;4.06;49.95
76660;BME280;65579;45.534;6.212;2023-02-26T06:10:53;96801.38;;;4.03;48.72
76660;BME280;65579;45.534;6.212;2023-02-26T06:13:18;96800.47;;;3.52;46.92
76660;BME280;65579;45.534;6.212;2023-02-26T06:15:44;96801.48;;;4.10;47.85
76660;BME280;65579;45.534;6.212;2023-02-26T06:18:09;96801.38;;;3.75;49.45
76660;BME280;65579;45.534;6.212;2023-02-26T06:20:35;96803.86;;;3.60;46.81
76660;BME280;65579;45.534;6.212;2023-02-26T06:23:00;96805.17;;;4.36;52.45
76660;BME280;65579;45.534;6.212;2023-02-26T06:25:26;96806.88;;;4.88;47.45
76660;BME280;65579;45.534;6.212;2023-02-26T06:27:51;96804.24;;;3.53;49.80
76660;BME280;65579;45.534;6.212;2023-02-26T06:30:17;96810.05;;;4.39;47.58
76660;BME280;65579;45.534;6.212;2023-02-26T06:32:42;96811.12;;;4.00;48.35
76660;BME280;65579;45.534;6.212;2023-02-26T06:35:08;96818.55;;;4.10;54.17
76660;BME280;65579;45.534;6.212;2023-02-26T06:37:33;96816.44;;;4.77;46.45
76660;BME280;65579;45.534;6.212;2023-02-26T06:39:59;96806.07;;;4.18;44.03
76660;BME280;65579;45.534;6.212;2023-02-26T06:42:24;96809.51;;;4.56;46.32
76660;BME280;65579;45.534;6.212;2023-02-26T06:44:49;96815.77;;;4.83;43.69
76660;BME280;65579;45.534;6.212;2023-02-26T06:47:16;96814.01;;;3.80;49.81
76660;BME280;65579;45.534;6.212;2023-02-26T06:49:41;96810.32;;;3.67;47.85
76660;BME280;65579;45.534;6.212;2023-02-26T06:52:06;96812.19;;;3.98;50.78
76660;BME280;65579;45.534;6.212;2023-02-26T06:54:32;96818.65;;;4.39;39.70
76660;BME280;65579;45.534;6.212;2023-02-26T06:56:58;96819.02;;;4.40;42.35
76660;BME280;65579;45.534;6.212;2023-02-26T06:59:23;96821.22;;;3.91;45.83
76660;BME280;65579;45.534;6.212;2023-02-26T07:01:49;96815.58;;;3.80;48.63
76660;BME280;65579;45.534;6.212;2023-02-26T07:04:15;96822.54;;;3.76;57.72
76660;BME280;65579;45.534;6.212;2023-02-26T07:06:40;96817.56;;;3.89;55.41
76660;BME280;65579;45.534;6.212;2023-02-26T07:09:06;96825.42;;;3.99;47.29
76660;BME280;65579;45.534;6.212;2023-02-26T07:11:31;96829.63;;;3.72;48.52
76660;BME280;65579;45.534;6.212;2023-02-26T07:13:57;96826.05;;;4.51;53.05
76660;BME280;65579;45.534;6.212;2023-02-26T07:16:22;96827.29;;;5.17;56.45
76660;BME280;65579;45.534;6.212;2023-02-26T07:18:48;96817.01;;;6.50;59.41
76660;BME280;65579;45.534;6.212;2023-02-26T07:21:13;96821.70;;;5.06;45.56
76660;BME280;65579;45.534;6.212;2023-02-26T07:23:39;96819.97;;;4.92;46.92
76660;BME280;65579;45.534;6.212;2023-02-26T07:26:04;96815.29;;;4.61;42.91
76660;BME280;65579;45.534;6.212;2023-02-26T07:28:29;96816.56;;;4.29;42.43
76660;BME280;65579;45.534;6.212;2023-02-26T07:30:55;96814.90;;;5.62;38.19
76660;BME280;65579;45.534;6.212;2023-02-26T07:33:20;96815.59;;;4.92;39.98
76660;BME280;65579;45.534;6.212;2023-02-26T07:35:46;96813.65;;;5.76;38.46
76660;BME280;65579;45.534;6.212;2023-02-26T07:38:11;96819.16;;;5.36;41.12
76660;BME280;65579;45.534;6.212;2023-02-26T07:40:36;96811.61;;;5.02;41.82
76660;BME280;65579;45.534;6.212;2023-02-26T07:43:02;96811.70;;;3.59;44.17
76660;BME280;65579;45.534;6.212;2023-02-26T07:45:27;96811.81;;;4.62;48.49
76660;BME280;65579;45.534;6.212;2023-02-26T07:47:53;96815.00;;;3.89;49.17
76660;BME280;65579;45.534;6.212;2023-02-26T07:50:19;96811.82;;;4.14;42.55
76660;BME280;65579;45.534;6.212;2023-02-26T07:52:44;96812.39;;;3.76;43.67
76660;BME280;65579;45.534;6.212;2023-02-26T07:55:10;96803.62;;;4.95;43.98
76660;BME280;65579;45.534;6.212;2023-02-26T07:57:35;96801.91;;;3.95;45.23
76660;BME280;65579;45.534;6.212;2023-02-26T08:00:03;96798.26;;;3.74;46.45
76660;BME280;65579;45.534;6.212;2023-02-26T08:02:26;96794.02;;;3.96;49.00
76660;BME280;65579;45.534;6.212;2023-02-26T08:04:51;96804.13;;;4.28;45.62
76660;BME280;65579;45.534;6.212;2023-02-26T08:07:17;96800.46;;;3.95;43.09
76660;BME280;65579;45.534;6.212;2023-02-26T08:09:42;96803.24;;;4.71;45.15
76660;BME280;65579;45.534;6.212;2023-02-26T08:12:08;96802.43;;;4.57;41.81
76660;BME280;65579;45.534;6.212;2023-02-26T08:14:33;96798.72;;;4.86;41.88
76660;BME280;65579;45.534;6.212;2023-02-26T08:16:58;96802.17;;;4.37;41.56
76660;BME280;65579;45.534;6.212;2023-02-26T08:19:24;96801.41;;;4.17;48.62
76660;BME280;65579;45.534;6.212;2023-02-26T08:21:50;96797.28;;;4.26;41.40
76660;BME280;65579;45.534;6.212;2023-02-26T08:24:15;96795.05;;;4.57;39.01
76660;BME280;65579;45.534;6.212;2023-02-26T08:26:40;96789.90;;;4.15;43.77
76660;BME280;65579;45.534;6.212;2023-02-26T08:29:06;96790.59;;;4.06;45.31
76660;BME280;65579;45.534;6.212;2023-02-26T08:31:31;96782.74;;;4.08;44.17
76660;BME280;65579;45.534;6.212;2023-02-26T08:33:56;96787.22;;;4.11;47.00
76660;BME280;65579;45.534;6.212;2023-02-26T08:36:22;96792.66;;;4.82;45.55
76660;BME280;65579;45.534;6.212;2023-02-26T08:38:47;96784.42;;;4.02;41.33
76660;BME280;65579;45.534;6.212;2023-02-26T08:41:12;96784.66;;;4.59;46.40
76660;BME280;65579;45.534;6.212;2023-02-26T08:43:37;96790.93;;;4.47;44.59
76660;BME280;65579;45.534;6.212;2023-02-26T08:46:03;96792.82;;;4.86;40.33
76660;BME280;65579;45.534;6.212;2023-02-26T08:48:28;96792.61;;;4.12;42.91
76660;BME280;65579;45.534;6.212;2023-02-26T08:50:54;96789.95;;;4.05;40.45
76660;BME280;65579;45.534;6.212;2023-02-26T08:53:19;96794.17;;;4.61;42.28
76660;BME280;65579;45.534;6.212;2023-02-26T08:55:47;96792.75;;;4.05;41.63
76660;BME280;65579;45.534;6.212;2023-02-26T08:58:10;96800.42;;;3.57;45.14
76660;BME280;65579;45.534;6.212;2023-02-26T09:00:36;96796.45;;;3.80;53.69
76660;BME280;65579;45.534;6.212;2023-02-26T09:03:01;96803.65;;;3.81;40.56
76660;BME280;65579;45.534;6.212;2023-02-26T09:05:26;96807.24;;;3.56;43.08
76660;BME280;65579;45.534;6.212;2023-02-26T09:07:51;96807.49;;;4.23;37.63
76660;BME280;65579;45.534;6.212;2023-02-26T09:10:17;96809.46;;;4.36;41.35
76660;BME280;65579;45.534;6.212;2023-02-26T09:12:43;96809.81;;;4.15;43.32
76660;BME280;65579;45.534;6.212;2023-02-26T09:15:10;96818.69;;;4.62;45.44
76660;BME280;65579;45.534;6.212;2023-02-26T09:17:36;96814.80;;;4.88;39.91
76660;BME280;65579;45.534;6.212;2023-02-26T09:19:58;96819.97;;;3.92;42.81
76660;BME280;65579;45.534;6.212;2023-02-26T09:22:31;96816.83;;;4.20;37.97
76660;BME280;65579;45.534;6.212;2023-02-26T09:24:49;96827.00;;;4.21;34.70
76660;BME280;65579;45.534;6.212;2023-02-26T09:27:15;96825.71;;;4.00;38.17
76660;BME280;65579;45.534;6.212;2023-02-26T09:29:40;96832.22;;;3.72;39.81
76660;BME280;65579;45.534;6.212;2023-02-26T09:32:05;96826.93;;;4.18;35.53
76660;BME280;65579;45.534;6.212;2023-02-26T09:34:31;96826.42;;;4.09;42.32
76660;BME280;65579;45.534;6.212;2023-02-26T09:36:56;96832.24;;;4.51;36.67
76660;BME280;65579;45.534;6.212;2023-02-26T09:39:22;96834.39;;;4.21;41.26
76660;BME280;65579;45.534;6.212;2023-02-26T09:41:50;96830.78;;;4.32;48.49
76660;BME280;65579;45.534;6.212;2023-02-26T09:44:17;96840.53;;;4.02;37.31
76660;BME280;65579;45.534;6.212;2023-02-26T09:46:46;96838.98;;;3.87;37.68
76660;BME280;65579;45.534;6.212;2023-02-26T09:49:14;96842.62;;;3.52;43.93
76660;BME280;65579;45.534;6.212;2023-02-26T09:51:30;96843.03;;;3.63;41.78
76660;BME280;65579;45.534;6.212;2023-02-26T09:53:55;96845.27;;;3.92;46.76
76660;BME280;65579;45.534;6.212;2023-02-26T09:56:23;96844.76;;;3.57;39.93
76660;BME280;65579;45.534;6.212;2023-02-26T09:58:46;96854.09;;;3.54;43.36
76660;BME280;65579;45.534;6.212;2023-02-26T10:01:15;96855.49;;;4.16;36.68
76660;BME280;65579;45.534;6.212;2023-02-26T10:03:48;96853.55;;;3.88;34.15
76660;BME280;65579;45.534;6.212;2023-02-26T10:06:16;96857.34;;;3.60;42.72
76660;BME280;65579;45.534;6.212;2023-02-26T10:08:32;96859.45;;;3.27;39.20
76660;BME280;65579;45.534;6.212;2023-02-26T10:11:00;96863.88;;;3.31;40.16
76660;BME280;65579;45.534;6.212;2023-02-26T10:13:22;96853.68;;;3.69;45.58
76660;BME280;65579;45.534;6.212;2023-02-26T10:15:44;96860.48;;;4.44;42.93
76660;BME280;65579;45.534;6.212;2023-02-26T10:18:13;96859.52;;;4.05;39.89
76660;BME280;65579;45.534;6.212;2023-02-26T10:20:40;96862.07;;;4.25;44.77
76660;BME280;65579;45.534;6.212;2023-02-26T10:23:06;96859.74;;;4.24;46.57
76660;BME280;65579;45.534;6.212;2023-02-26T10:25:29;96859.78;;;4.37;42.83
76660;BME280;65579;45.534;6.212;2023-02-26T10:27:56;96863.43;;;4.10;44.39
76660;BME280;65579;45.534;6.212;2023-02-26T10:30:25;96866.33;;;5.17;44.74
76660;BME280;65579;45.534;6.212;2023-02-26T10:32:49;96864.88;;;4.42;41.85
76660;BME280;65579;45.534;6.212;2023-02-26T10:35:10;96862.50;;;4.01;42.65
76660;BME280;65579;45.534;6.212;2023-02-26T10:37:40;96859.99;;;4.51;47.88
76660;BME280;65579;45.534;6.212;2023-02-26T10:40:02;96863.49;;;4.90;44.34
76660;BME280;65579;45.534;6.212;2023-02-26T10:42:26;96859.69;;;5.04;48.31
76660;BME280;65579;45.534;6.212;2023-02-26T10:44:56;96859.76;;;4.40;44.35
76660;BME280;65579;45.534;6.212;2023-02-26T10:47:18;96860.55;;;4.91;43.31
76660;BME280;65579;45.534;6.212;2023-02-26T10:49:49;96857.27;;;4.29;42.24
76660;BME280;65579;45.534;6.212;2023-02-26T10:52:12;96862.81;;;4.81;40.55
76660;BME280;65579;45.534;6.212;2023-02-26T10:54:34;96864.31;;;4.72;40.00
76660;BME280;65579;45.534;6.212;2023-02-26T10:56:56;96866.03;;;5.17;46.24
76660;BME280;65579;45.534;6.212;2023-02-26T10:59:21;96864.78;;;4.15;36.12
76660;BME280;65579;45.534;6.212;2023-02-26T11:01:46;96871.29;;;4.42;42.28
76660;BME280;65579;45.534;6.212;2023-02-26T11:04:13;96874.54;;;4.89;43.24
76660;BME280;65579;45.534;6.212;2023-02-26T11:06:40;96865.14;;;4.51;40.52
76660;BME280;65579;45.534;6.212;2023-02-26T11:09:04;96864.98;;;4.68;37.12
76660;BME280;65579;45.534;6.212;2023-02-26T11:11:39;96863.17;;;5.36;41.25
76660;BME280;65579;45.534;6.212;2023-02-26T11:13:54;96865.28;;;5.12;42.43
76660;BME280;65579;45.534;6.212;2023-02-26T11:16:19;96869.33;;;5.28;40.55
76660;BME280;65579;45.534;6.212;2023-02-26T11:18:48;96871.90;;;4.91;37.54
76660;BME280;65579;45.534;6.212;2023-02-26T11:21:16;96860.33;;;5.48;39.84
76660;BME280;65579;45.534;6.212;2023-02-26T11:23:34;96862.26;;;4.96;32.87
76660;BME280;65579;45.534;6.212;2023-02-26T11:26:05;96858.63;;;5.23;33.78
76660;BME280;65579;45.534;6.212;2023-02-26T11:28:30;96858.81;;;5.63;38.42
76660;BME280;65579;45.534;6.212;2023-02-26T11:30:51;96855.85;;;5.66;38.06
76660;BME280;65579;45.534;6.212;2023-02-26T11:33:20;96854.43;;;5.63;35.97
76660;BME280;65579;45.534;6.212;2023-02-26T11:35:42;96844.79;;;6.34;41.71
76660;BME280;65579;45.534;6.212;2023-02-26T11:38:17;96846.61;;;5.77;36.88
76660;BME280;65579;45.534;6.212;2023-02-26T11:40:36;96850.31;;;5.38;36.06
76660;BME280;65579;45.534;6.212;2023-02-26T11:43:02;96854.20;;;5.24;37.18
76660;BME280;65579;45.534;6.212;2023-02-26T11:45:24;96855.83;;;5.09;42.42
76660;BME280;65579;45.534;6.212;2023-02-26T11:47:56;96847.06;;;5.27;39.17
76660;BME280;65579;45.534;6.212;2023-02-26T11:50:18;96850.27;;;4.94;43.09
76660;BME280;65579;45.534;6.212;2023-02-26T11:52:41;96855.36;;;5.50;48.03
76660;BME280;65579;45.534;6.212;2023-02-26T11:57:31;96859.12;;;4.96;38.29
76660;BME280;65579;45.534;6.212;2023-02-26T11:59:58;96859.74;;;5.34;34.37
76660;BME280;65579;45.534;6.212;2023-02-26T12:02:23;96860.25;;;5.74;33.95
76660;BME280;65579;45.534;6.212;2023-02-26T12:04:51;96867.20;;;5.22;37.28
76660;BME280;65579;45.534;6.212;2023-02-26T12:07:14;96865.45;;;5.13;42.49
76660;BME280;65579;45.534;6.212;2023-02-26T12:09:37;96861.31;;;4.75;34.14
76660;BME280;65579;45.534;6.212;2023-02-26T12:12:14;96860.98;;;5.81;37.70
76660;BME280;65579;45.534;6.212;2023-02-26T12:14:39;96861.24;;;4.25;39.21
76660;BME280;65579;45.534;6.212;2023-02-26T12:17:01;96854.76;;;5.59;42.25
76660;BME280;65579;45.534;6.212;2023-02-26T12:19:27;96854.51;;;4.75;40.52
76660;BME280;65579;45.534;6.212;2023-02-26T12:22:01;96850.42;;;5.54;32.94
76660;BME280;65579;45.534;6.212;2023-02-26T12:24:28;96843.41;;;5.80;31.82
76660;BME280;65579;45.534;6.212;2023-02-26T12:26:40;96841.77;;;5.63;35.04
76660;BME280;65579;45.534;6.212;2023-02-26T12:29:15;96843.73;;;5.24;33.45
76660;BME280;65579;45.534;6.212;2023-02-26T12:31:41;96840.65;;;5.19;38.08
76660;BME280;65579;45.534;6.212;2023-02-26T12:33:58;96840.99;;;5.30;38.07
76660;BME280;65579;45.534;6.212;2023-02-26T12:36:26;96843.06;;;5.57;41.48
76660;BME280;65579;45.534;6.212;2023-02-26T12:38:48;96838.70;;;5.67;37.15
76660;BME280;65579;45.534;6.212;2023-02-26T12:41:20;96834.61;;;5.68;36.86
76660;BME280;65579;45.534;6.212;2023-02-26T12:43:38;96843.41;;;5.11;39.87
76660;BME280;65579;45.534;6.212;2023-02-26T12:46:04;96848.94;;;5.61;37.98
76660;BME280;65579;45.534;6.212;2023-02-26T12:50:59;96852.01;;;5.36;35.91
76660;BME280;65579;45.534;6.212;2023-02-26T12:53:35;96851.08;;;5.16;36.57
76660;BME280;65579;45.534;6.212;2023-02-26T12:55:52;96850.42;;;5.42;35.85
76660;BME280;65579;45.534;6.212;2023-02-26T13:03:06;96833.58;;;6.42;34.41
76660;BME280;65579;45.534;6.212;2023-02-26T13:05:28;96837.12;;;6.52;36.25
76660;BME280;65579;45.534;6.212;2023-02-26T13:10:19;96836.77;;;6.20;33.07
76660;BME280;65579;45.534;6.212;2023-02-26T13:12:45;96837.75;;;6.12;36.55
76660;BME280;65579;45.534;6.212;2023-02-26T13:17:33;96828.51;;;6.90;30.82